메인 페이지
METAR-TAF:

METAR-TAF

공항 :

상파울루 콩고냐스 공항

상파울루, 상파울루, 브라질

위도: 23-37S, 경도: 046-39W, 고도: 803m

현재 날씨관측

예보는 14분 전, 23:00시(UTC)에 발표되었습니다.
남남동7kt
온도 13°C
습도 88%
기압 1026 hPa
시정: 5000m
박무,

METAR: SBSP 202300Z 16007KT 5000 BR NSC 13/11 Q1026

시각: 20:14 (23:14 UTC)

예보

예보는 6 시간 44분 전, 16:30시(UTC)에 발표되었습니다.
예보 대상 시간: 20일 18시부터 21일 06시까지 (UTC)
남남동8kt
시정 10km 이상
1500m 미만 상공 구름 및 적란운 없음
전환 중
20일 21시부터 20일 23시까지 (UTC)
남남동5kt
고도 800ft 상공 구름 많음

TAF: SBSP 201630Z 2018/2106 16008KT CAVOK TX20/2019Z TN13/2106Z BECMG 2021/2023 16005KT BKN008 RMK PHG

4,000개 이상의 공항 관측 자료 및 예보 (METAR 및 TAF 보고).

지도상에서 검색 가능한 기상관측소가 노란 점과 빨간 점으로 표시되어 있습니다.

기상관측소 명을 보려면 표시 위로 마우스를 이동하세요.

날씨 관측과 예보를 보려면 클릭하세요.

지도 변경 : 확대하려면 엑스 표시가 있는 녹색 버튼, 축소하려면 빼기 표시가 있는 녹색 버튼, 다음 페이지의 지도를 보려면 녹색 화살표를 클릭하세요.


METAR-TAF: